createdAt,value
2023-09-23T00:02:11.171Z,5.63
2023-09-23T00:05:15.916Z,5.10
2023-09-23T00:08:21.575Z,5.00
2023-09-23T00:11:23.820Z,5.65
2023-09-23T00:14:26.026Z,5.32
2023-09-23T00:17:28.728Z,5.07
2023-09-23T00:20:30.995Z,5.63
2023-09-23T00:23:33.912Z,4.60
2023-09-23T00:26:36.892Z,5.75
2023-09-23T00:29:39.253Z,5.00
2023-09-23T00:32:45.094Z,4.95
2023-09-23T00:35:49.029Z,5.07
2023-09-23T00:38:51.829Z,5.57
2023-09-23T00:41:54.793Z,5.57
2023-09-23T00:44:57.325Z,5.38
2023-09-23T00:47:59.594Z,5.38
2023-09-23T00:51:01.726Z,6.03
2023-09-23T00:54:06.305Z,6.22
2023-09-23T00:57:08.816Z,5.45
2023-09-23T01:00:24.711Z,5.43
2023-09-23T01:03:28.638Z,5.53
2023-09-23T01:06:31.380Z,5.40
2023-09-23T01:09:34.606Z,5.63
2023-09-23T01:12:36.728Z,5.25
2023-09-23T01:15:41.946Z,5.57
2023-09-23T01:18:50.168Z,4.93
2023-09-23T01:21:52.301Z,5.20
2023-09-23T01:24:57.937Z,6.05
2023-09-23T01:28:01.715Z,5.68
2023-09-23T01:31:06.253Z,5.45
2023-09-23T01:34:08.520Z,4.68
2023-09-23T01:37:10.932Z,4.70
2023-09-23T01:40:19.618Z,5.72
2023-09-23T01:43:22.455Z,5.40
2023-09-23T01:46:26.217Z,4.72
2023-09-23T01:49:28.434Z,7.57
2023-09-23T01:52:30.670Z,5.53
2023-09-23T01:55:33.259Z,5.88
2023-09-23T01:58:37.124Z,5.82
2023-09-23T02:01:41.554Z,5.22
2023-09-23T02:04:43.820Z,5.38
2023-09-23T02:07:47.577Z,5.07
2023-09-23T02:10:50.331Z,5.20
2023-09-23T02:13:53.504Z,4.85
2023-09-23T02:16:56.014Z,5.28
2023-09-23T02:19:58.283Z,5.35
2023-09-23T02:23:00.657Z,4.93
2023-09-23T02:26:02.810Z,5.25
2023-09-23T02:29:05.726Z,5.20
2023-09-23T02:32:08.644Z,4.82
2023-09-23T02:35:12.791Z,5.63
2023-09-23T02:38:15.681Z,4.63
2023-09-23T02:41:18.492Z,5.70
2023-09-23T02:44:21.454Z,5.53
2023-09-23T02:47:24.124Z,5.95
2023-09-23T02:50:27.219Z,6.18
2023-09-23T02:53:30.398Z,5.17
2023-09-23T02:56:33.660Z,5.53
2023-09-23T02:59:42.801Z,5.65
2023-09-23T03:02:54.881Z,5.65
2023-09-23T03:05:58.593Z,5.68
2023-09-23T03:09:01.289Z,5.93
2023-09-23T03:12:05.030Z,6.05
2023-09-23T03:15:15.591Z,6.45
2023-09-23T03:18:29.148Z,5.85
2023-09-23T03:21:31.503Z,7.55
2023-09-23T03:24:33.577Z,6.67
2023-09-23T03:27:36.715Z,6.72
2023-09-23T03:30:38.984Z,6.97
2023-09-23T03:33:43.770Z,7.93
2023-09-23T03:36:47.841Z,7.50
2023-09-23T03:39:50.384Z,7.37
2023-09-23T03:42:53.464Z,8.25
2023-09-23T03:45:58.329Z,7.63
2023-09-23T03:49:01.424Z,8.00
2023-09-23T03:52:06.929Z,7.85
2023-09-23T03:55:09.926Z,8.57
2023-09-23T03:58:12.481Z,9.32
2023-09-23T04:01:15.371Z,8.50
2023-09-23T04:04:18.660Z,7.75
2023-09-23T04:07:24.003Z,7.38
2023-09-23T04:10:28.109Z,8.00
2023-09-23T04:13:31.846Z,7.57
2023-09-23T04:16:34.593Z,7.70
2023-09-23T04:19:37.065Z,7.90
2023-09-23T04:22:39.675Z,8.20
2023-09-23T04:25:43.495Z,8.27
2023-09-23T04:28:47.054Z,6.70
2023-09-23T04:31:50.545Z,8.05
2023-09-23T04:34:52.874Z,7.25
2023-09-23T04:37:55.749Z,7.15
2023-09-23T04:40:58.276Z,7.07
2023-09-23T04:44:00.449Z,6.93
2023-09-23T04:47:02.565Z,8.52
2023-09-23T04:50:06.210Z,7.75
2023-09-23T04:53:08.607Z,7.25
2023-09-23T04:56:11.587Z,7.80
2023-09-23T04:59:14.125Z,7.50
2023-09-23T05:02:18.848Z,7.78
2023-09-23T05:05:22.226Z,7.50
2023-09-23T05:08:24.798Z,7.30
2023-09-23T05:11:27.368Z,7.10
2023-09-23T05:14:29.506Z,6.95
2023-09-23T05:17:31.851Z,6.00
2023-09-23T05:20:35.027Z,6.13
2023-09-23T05:23:37.224Z,6.05
2023-09-23T05:26:41.647Z,6.83
2023-09-23T05:29:44.524Z,6.13
2023-09-23T05:32:47.451Z,6.03
2023-09-23T05:35:49.937Z,5.85
2023-09-23T05:38:52.791Z,5.85
2023-09-23T05:41:55.056Z,6.40
2023-09-23T05:44:57.543Z,5.47
2023-09-23T05:48:00.330Z,5.05
2023-09-23T05:51:08.630Z,6.00
2023-09-23T05:54:11.135Z,5.57
2023-09-23T05:57:13.658Z,5.23
2023-09-23T06:00:19.174Z,5.22
2023-09-23T06:03:21.361Z,5.68
2023-09-23T06:06:23.984Z,5.05
2023-09-23T06:09:26.146Z,5.32
2023-09-23T06:12:30.660Z,5.20
2023-09-23T06:15:34.138Z,4.78
2023-09-23T06:18:36.530Z,5.13
2023-09-23T06:21:38.677Z,5.10
2023-09-23T06:24:41.054Z,5.43
2023-09-23T06:27:44.112Z,5.43
2023-09-23T06:30:46.339Z,5.13
2023-09-23T06:33:48.711Z,5.68
2023-09-23T06:36:50.854Z,5.15
2023-09-23T06:39:53.049Z,5.97
2023-09-23T06:42:55.333Z,5.37
2023-09-23T06:45:58.028Z,4.80
2023-09-23T06:49:00.709Z,6.18
2023-09-23T06:52:03.208Z,5.78
2023-09-23T06:55:05.544Z,5.80
2023-09-23T06:58:07.696Z,5.03
2023-09-23T07:01:09.772Z,6.80
2023-09-23T07:04:11.938Z,6.07
2023-09-23T07:07:14.105Z,7.18
2023-09-23T07:10:16.194Z,7.20
2023-09-23T07:13:18.602Z,6.67
2023-09-23T07:16:20.729Z,6.50
2023-09-23T07:19:23.212Z,6.63
2023-09-23T07:22:25.374Z,6.80
2023-09-23T07:25:28.173Z,7.32
2023-09-23T07:28:30.725Z,6.47
2023-09-23T07:31:33.392Z,7.18
2023-09-23T07:34:35.398Z,7.82
2023-09-23T07:37:37.699Z,7.13
2023-09-23T07:40:40.434Z,6.40
2023-09-23T07:43:42.659Z,5.80
2023-09-23T07:46:44.875Z,6.70
2023-09-23T07:49:47.388Z,6.80
2023-09-23T07:52:49.956Z,6.45
2023-09-23T07:55:52.149Z,6.05
2023-09-23T07:58:54.285Z,6.27
2023-09-23T08:01:56.575Z,6.05
2023-09-23T08:04:59.295Z,6.70
2023-09-23T08:08:01.957Z,6.60
2023-09-23T08:11:04.218Z,6.00
2023-09-23T08:14:06.639Z,6.43
2023-09-23T08:17:09.180Z,6.05
2023-09-23T08:20:22.797Z,6.40
2023-09-23T08:26:28.098Z,6.28
2023-09-23T08:29:31.179Z,5.77
2023-09-23T08:32:33.836Z,6.28
2023-09-23T08:35:37.367Z,6.90
2023-09-23T08:38:41.077Z,7.22
2023-09-23T08:41:46.536Z,6.20
2023-09-23T08:44:49.118Z,5.87
2023-09-23T08:47:51.541Z,6.15
2023-09-23T08:50:54.986Z,6.25
2023-09-23T08:53:57.231Z,5.60
2023-09-23T08:56:59.557Z,6.05
2023-09-23T09:00:02.174Z,5.47
2023-09-23T09:03:05.653Z,5.93
2023-09-23T09:06:18.630Z,6.90
2023-09-23T09:09:20.956Z,5.30
2023-09-23T09:12:23.058Z,6.40
2023-09-23T09:15:25.548Z,6.20
2023-09-23T09:18:29.506Z,5.55
2023-09-23T09:21:33.176Z,5.30
2023-09-23T09:24:35.189Z,5.28
2023-09-23T09:27:37.514Z,5.20
2023-09-23T09:30:40.126Z,5.30
2023-09-23T09:33:42.318Z,4.95
2023-09-23T09:36:44.440Z,4.53
2023-09-23T09:40:12.738Z,4.53
2023-09-23T09:43:16.134Z,4.60
2023-09-23T09:46:18.691Z,4.60
2023-09-23T09:49:20.834Z,4.50
2023-09-23T09:52:24.953Z,4.78
2023-09-23T09:55:27.000Z,4.45
2023-09-23T09:58:41.211Z,4.05
2023-09-23T10:01:43.870Z,4.70
2023-09-23T10:04:47.060Z,4.80
2023-09-23T10:07:50.024Z,4.60
2023-09-23T10:10:52.467Z,3.70
2023-09-23T10:13:55.095Z,4.70
2023-09-23T10:17:01.326Z,4.23
2023-09-23T10:20:17.023Z,4.88
2023-09-23T10:23:19.796Z,3.90
2023-09-23T10:26:24.452Z,3.70
2023-09-23T10:29:27.176Z,3.70
2023-09-23T10:32:29.667Z,3.77
2023-09-23T10:35:31.963Z,4.22
2023-09-23T10:38:39.707Z,3.83
2023-09-23T10:41:42.523Z,3.83
2023-09-23T10:44:46.888Z,3.63
2023-09-23T10:47:49.141Z,3.63
2023-09-23T10:50:53.083Z,3.35
2023-09-23T10:53:55.528Z,3.42
2023-09-23T10:56:58.321Z,3.70
2023-09-23T11:00:00.747Z,3.65
2023-09-23T11:03:07.283Z,3.20
2023-09-23T11:06:09.778Z,2.90
2023-09-23T11:09:12.341Z,2.72
2023-09-23T11:12:15.180Z,2.80
2023-09-23T11:15:17.416Z,2.60
2023-09-23T11:18:19.675Z,2.47
2023-09-23T11:21:22.270Z,2.60
2023-09-23T11:24:24.330Z,3.47
2023-09-23T11:27:26.621Z,3.45
2023-09-23T11:30:28.903Z,3.40
2023-09-23T11:33:31.043Z,3.27
2023-09-23T11:36:33.435Z,3.65
2023-09-23T11:39:36.748Z,4.63
2023-09-23T11:42:38.953Z,3.90
2023-09-23T11:45:43.490Z,4.10
2023-09-23T11:48:49.359Z,5.03
2023-09-23T11:51:51.863Z,5.47
2023-09-23T11:54:54.902Z,5.57
2023-09-23T11:57:59.077Z,5.53
2023-09-23T12:01:03.728Z,5.13
2023-09-23T12:04:06.586Z,4.63
2023-09-23T12:07:08.751Z,4.60
2023-09-23T12:10:12.209Z,4.72
2023-09-23T12:13:14.717Z,4.93
2023-09-23T12:16:17.339Z,5.32
2023-09-23T12:19:19.902Z,5.27
2023-09-23T12:22:22.181Z,5.35
2023-09-23T12:25:24.256Z,5.78
2023-09-23T12:28:27.302Z,4.78
2023-09-23T12:31:30.255Z,4.68
2023-09-23T12:34:32.829Z,4.53
2023-09-23T12:37:35.435Z,4.15
2023-09-23T12:40:37.537Z,4.43
2023-09-23T12:43:39.754Z,4.50
2023-09-23T12:46:42.164Z,4.28
2023-09-23T12:49:45.201Z,3.60
2023-09-23T12:52:47.917Z,4.25
2023-09-23T12:55:50.286Z,4.10
2023-09-23T12:58:53.019Z,4.00
2023-09-23T13:01:55.272Z,4.82
2023-09-23T13:04:57.297Z,4.20
2023-09-23T13:07:59.886Z,4.22
2023-09-23T13:11:02.453Z,4.53
2023-09-23T13:14:04.868Z,4.07
2023-09-23T13:17:07.538Z,4.07
2023-09-23T13:20:10.382Z,4.50
2023-09-23T13:23:13.090Z,4.80
2023-09-23T13:26:15.365Z,5.30
2023-09-23T13:29:19.127Z,5.45
2023-09-23T13:32:21.653Z,5.25
2023-09-23T13:35:23.735Z,5.07
2023-09-23T13:38:26.512Z,5.10
2023-09-23T13:41:29.132Z,5.78
2023-09-23T13:44:31.675Z,5.05
2023-09-23T13:47:38.910Z,4.47
2023-09-23T13:50:41.345Z,4.47
2023-09-23T13:53:43.571Z,4.35
2023-09-23T13:56:46.148Z,4.55
2023-09-23T13:59:48.278Z,4.15
2023-09-23T14:02:50.731Z,3.80
2023-09-23T14:05:53.309Z,2.93
2023-09-23T14:08:55.531Z,2.90
2023-09-23T14:11:58.061Z,2.80
2023-09-23T14:15:00.328Z,2.65
2023-09-23T14:18:03.725Z,2.10
2023-09-23T14:21:06.765Z,2.10
2023-09-23T14:24:09.115Z,2.05
2023-09-23T14:27:11.714Z,2.28
2023-09-23T14:30:14.046Z,2.30
2023-09-23T14:33:16.344Z,2.38
2023-09-23T14:36:18.880Z,2.87
2023-09-23T14:39:23.135Z,2.47
2023-09-23T14:42:25.804Z,2.60
2023-09-23T14:45:28.307Z,3.30
2023-09-23T14:48:30.819Z,3.15
2023-09-23T14:51:33.188Z,2.80
2023-09-23T14:54:35.652Z,3.20
2023-09-23T14:57:38.150Z,3.38
2023-09-23T15:00:40.190Z,3.17
2023-09-23T15:03:42.710Z,3.20
2023-09-23T15:06:45.692Z,2.87
2023-09-23T15:09:48.271Z,2.95
2023-09-23T15:12:51.786Z,3.05
2023-09-23T15:15:56.918Z,2.58
2023-09-23T15:18:59.315Z,2.75
2023-09-23T15:22:01.856Z,2.97
2023-09-23T15:25:05.080Z,3.13
2023-09-23T15:28:09.197Z,2.70
2023-09-23T15:31:11.729Z,2.92
2023-09-23T15:34:14.277Z,3.17
2023-09-23T15:37:16.442Z,3.20
2023-09-23T15:40:18.915Z,2.72
2023-09-23T15:43:21.033Z,3.03
2023-09-23T15:46:23.532Z,3.03
2023-09-23T15:49:28.139Z,3.53
2023-09-23T15:52:30.372Z,3.10
2023-09-23T15:55:32.802Z,3.30
2023-09-23T15:58:35.188Z,3.33
2023-09-23T16:01:37.440Z,3.38
2023-09-23T16:04:40.006Z,3.85
2023-09-23T16:07:42.171Z,3.43
2023-09-23T16:10:44.649Z,3.40
2023-09-23T16:13:47.621Z,3.28
2023-09-23T16:16:50.283Z,3.45
2023-09-23T16:19:52.411Z,3.75
2023-09-23T16:22:54.813Z,3.50
2023-09-23T16:25:57.149Z,3.22
2023-09-23T16:28:59.665Z,3.30
2023-09-23T16:32:02.437Z,3.97
2023-09-23T16:35:06.026Z,3.47
2023-09-23T16:38:08.623Z,3.30
2023-09-23T16:41:11.163Z,3.47
2023-09-23T16:44:13.414Z,3.85
2023-09-23T16:47:16.132Z,3.42
2023-09-23T16:50:18.933Z,3.70
2023-09-23T16:53:21.141Z,3.20
2023-09-23T16:56:23.717Z,3.28
2023-09-23T16:59:25.929Z,3.50
2023-09-23T17:02:28.681Z,3.08
2023-09-23T17:05:30.837Z,3.28
2023-09-23T17:08:33.485Z,3.67
2023-09-23T17:11:35.680Z,3.10
2023-09-23T17:14:38.291Z,2.95
2023-09-23T17:17:40.576Z,3.00
2023-09-23T17:20:44.038Z,2.65
2023-09-23T17:23:47.242Z,3.50
2023-09-23T17:26:49.528Z,2.85
2023-09-23T17:29:52.097Z,3.38
2023-09-23T17:32:54.457Z,4.05
2023-09-23T17:35:57.686Z,6.00
2023-09-23T17:39:00.677Z,6.87
2023-09-23T17:42:02.718Z,9.30
2023-09-23T17:45:05.107Z,6.55
2023-09-23T17:48:07.767Z,5.03
2023-09-23T17:51:10.344Z,4.18
2023-09-23T17:54:12.865Z,4.93
2023-09-23T17:57:15.913Z,4.53
2023-09-23T18:00:18.034Z,4.63
2023-09-23T18:03:20.463Z,3.72
2023-09-23T18:06:22.699Z,3.90
2023-09-23T18:09:25.130Z,3.57
2023-09-23T18:12:27.650Z,3.67
2023-09-23T18:15:30.621Z,3.25
2023-09-23T18:18:33.326Z,3.20
2023-09-23T18:21:35.657Z,3.40
2023-09-23T18:24:37.702Z,2.77
2023-09-23T18:27:40.890Z,3.45
2023-09-23T18:30:43.028Z,3.47
2023-09-23T18:33:45.321Z,4.18
2023-09-23T18:36:48.038Z,4.22
2023-09-23T18:39:50.200Z,4.73
2023-09-23T18:42:55.788Z,4.43
2023-09-23T18:45:57.945Z,4.68
2023-09-23T18:49:00.085Z,4.65
2023-09-23T18:52:04.095Z,4.30
2023-09-23T18:55:06.313Z,4.20
2023-09-23T18:58:10.224Z,4.65
2023-09-23T19:01:12.367Z,4.88
2023-09-23T19:04:14.600Z,4.45
2023-09-23T19:07:17.571Z,3.92
2023-09-23T19:10:20.788Z,3.80
2023-09-23T19:13:22.884Z,3.72
2023-09-23T19:16:25.654Z,3.65
2023-09-23T19:19:28.119Z,4.03
2023-09-23T19:22:30.660Z,3.60
2023-09-23T19:25:32.658Z,3.67
2023-09-23T19:28:34.780Z,3.35
2023-09-23T19:31:36.982Z,4.15
2023-09-23T19:34:39.294Z,3.87
2023-09-23T19:37:41.718Z,3.70
2023-09-23T19:40:44.489Z,3.72
2023-09-23T19:43:47.746Z,3.70
2023-09-23T19:46:51.325Z,3.95
2023-09-23T19:49:54.115Z,5.00
2023-09-23T19:53:00.880Z,4.63
2023-09-23T19:56:03.558Z,5.35
2023-09-23T19:59:05.779Z,4.82
2023-09-23T20:02:09.618Z,5.28
2023-09-23T20:05:12.616Z,5.37
2023-09-23T20:08:17.114Z,5.43
2023-09-23T20:11:21.589Z,5.15
2023-09-23T20:14:24.061Z,5.22
2023-09-23T20:17:26.379Z,5.43
2023-09-23T20:20:28.836Z,5.23
2023-09-23T20:23:33.020Z,5.43
2023-09-23T20:26:35.811Z,5.53
2023-09-23T20:29:38.529Z,6.05
2023-09-23T20:32:41.327Z,5.47
2023-09-23T20:35:43.616Z,5.33
2023-09-23T20:38:46.334Z,6.13
2023-09-23T20:41:49.215Z,6.13
2023-09-23T20:44:51.762Z,5.78
2023-09-23T20:47:54.459Z,6.47
2023-09-23T20:50:57.096Z,6.07
2023-09-23T20:53:59.934Z,5.87
2023-09-23T20:57:02.246Z,5.70
2023-09-23T21:00:11.638Z,4.82
2023-09-23T21:03:16.680Z,4.88
2023-09-23T21:06:19.955Z,5.10
2023-09-23T21:09:22.551Z,4.60
2023-09-23T21:12:24.742Z,4.97
2023-09-23T21:15:27.068Z,4.53
2023-09-23T21:18:29.815Z,4.63
2023-09-23T21:21:32.021Z,4.57
2023-09-23T21:24:34.302Z,4.60
2023-09-23T21:27:36.841Z,4.75
2023-09-23T21:30:40.011Z,4.82
2023-09-23T21:33:42.119Z,4.28
2023-09-23T21:36:45.642Z,4.07
2023-09-23T21:39:47.800Z,5.20
2023-09-23T21:42:52.062Z,4.88
2023-09-23T21:45:55.250Z,4.82
2023-09-23T21:48:58.158Z,4.57
2023-09-23T21:52:01.136Z,4.70
2023-09-23T21:55:04.151Z,5.07
2023-09-23T21:58:06.261Z,5.00
2023-09-23T22:01:09.195Z,4.75
2023-09-23T22:04:12.071Z,4.70
2023-09-23T22:07:14.376Z,4.80
2023-09-23T22:10:16.982Z,5.33
2023-09-23T22:13:20.631Z,4.97
2023-09-23T22:16:24.147Z,4.82
2023-09-23T22:19:26.505Z,4.50
2023-09-23T22:22:30.511Z,4.97
2023-09-23T22:25:33.600Z,4.83
2023-09-23T22:28:35.762Z,5.28
2023-09-23T22:31:38.363Z,5.90
2023-09-23T22:34:41.514Z,5.03
2023-09-23T22:37:43.882Z,5.00
2023-09-23T22:40:50.248Z,5.70
2023-09-23T22:43:52.809Z,5.55
2023-09-23T22:46:54.987Z,5.10
2023-09-23T22:49:57.146Z,5.20
2023-09-23T22:52:59.334Z,4.53
2023-09-23T22:56:04.158Z,5.70
2023-09-23T22:59:07.008Z,5.40
2023-09-23T23:02:09.655Z,5.18
2023-09-23T23:05:12.577Z,5.03
2023-09-23T23:08:14.806Z,5.07
2023-09-23T23:11:17.242Z,5.30
2023-09-23T23:14:19.465Z,5.97
2023-09-23T23:17:22.088Z,5.20
2023-09-23T23:20:25.481Z,5.45
2023-09-23T23:23:28.162Z,5.60
2023-09-23T23:26:30.386Z,5.33
2023-09-23T23:29:32.635Z,5.45
2023-09-23T23:32:34.938Z,5.70
2023-09-23T23:35:38.704Z,6.13
2023-09-23T23:38:41.095Z,5.80
2023-09-23T23:41:43.668Z,6.40
2023-09-23T23:44:53.255Z,5.60
2023-09-23T23:47:56.710Z,5.75
2023-09-23T23:51:17.063Z,6.13
2023-09-23T23:54:19.568Z,5.33
2023-09-23T23:57:22.000Z,5.90
